createdAt,value
2022-07-28T00:01:30.306Z,6.53
2022-07-28T00:03:56.708Z,4.95
2022-07-28T00:06:23.225Z,6.03
2022-07-28T00:08:49.639Z,7.03
2022-07-28T00:11:16.387Z,3.65
2022-07-28T00:13:42.827Z,4.30
2022-07-28T00:16:11.972Z,5.40
2022-07-28T00:18:38.442Z,5.32
2022-07-28T00:21:04.887Z,5.25
2022-07-28T00:23:38.658Z,4.93
2022-07-28T00:26:06.286Z,5.57
2022-07-28T00:28:32.745Z,6.57
2022-07-28T00:31:05.578Z,11.15
2022-07-28T00:33:36.598Z,5.60
2022-07-28T00:36:03.850Z,6.47
2022-07-28T00:38:30.264Z,5.25
2022-07-28T00:41:11.917Z,2.75
2022-07-28T00:43:38.256Z,5.35
2022-07-28T00:46:04.735Z,9.70
2022-07-28T00:48:31.153Z,7.78
2022-07-28T00:50:57.678Z,6.65
2022-07-28T00:53:24.269Z,5.72
2022-07-28T00:56:03.625Z,5.43
2022-07-28T00:58:33.611Z,6.57
2022-07-28T01:01:00.119Z,6.90
2022-07-28T01:03:27.185Z,8.00
2022-07-28T01:06:06.004Z,5.30
2022-07-28T01:08:38.688Z,9.95
2022-07-28T01:11:06.972Z,6.55
2022-07-28T01:13:52.188Z,4.15
2022-07-28T01:16:23.625Z,5.60
2022-07-28T01:19:04.253Z,7.65
2022-07-28T01:21:35.122Z,7.00
2022-07-28T01:24:20.621Z,7.68
2022-07-28T01:26:50.095Z,5.32
2022-07-28T01:29:32.767Z,6.07
2022-07-28T01:32:28.799Z,9.35
2022-07-28T01:35:09.844Z,6.32
2022-07-28T01:37:40.301Z,7.35
2022-07-28T01:40:10.162Z,9.60
2022-07-28T01:42:41.632Z,4.00
2022-07-28T01:45:08.501Z,5.60
2022-07-28T01:47:35.477Z,4.20
2022-07-28T01:50:06.572Z,8.48
2022-07-28T01:52:34.473Z,4.63
2022-07-28T01:55:02.099Z,5.93
2022-07-28T01:57:32.845Z,4.68
2022-07-28T01:59:59.946Z,7.95
2022-07-28T02:02:27.768Z,6.25
2022-07-28T02:04:54.872Z,4.53
2022-07-28T02:07:22.442Z,5.47
2022-07-28T02:09:49.274Z,4.70
2022-07-28T02:12:17.421Z,4.43
2022-07-28T02:14:48.801Z,6.82
2022-07-28T02:17:16.540Z,4.45
2022-07-28T02:19:44.881Z,6.22
2022-07-28T02:22:12.069Z,5.70
2022-07-28T02:24:38.481Z,7.13
2022-07-28T02:27:21.095Z,7.43
2022-07-28T02:29:53.130Z,4.82
2022-07-28T02:32:27.263Z,5.88
2022-07-28T02:34:58.338Z,10.85
2022-07-28T02:37:26.021Z,5.15
2022-07-28T02:40:00.329Z,9.68
2022-07-28T02:42:30.742Z,4.80
2022-07-28T02:44:58.507Z,9.27
2022-07-28T02:47:26.991Z,8.32
2022-07-28T02:49:54.628Z,5.47
2022-07-28T02:52:24.006Z,4.82
2022-07-28T02:54:51.688Z,3.92
2022-07-28T02:57:18.793Z,6.25
2022-07-28T02:59:46.159Z,6.63
2022-07-28T03:02:13.225Z,3.33
2022-07-28T03:04:58.831Z,3.95
2022-07-28T03:07:26.397Z,4.13
2022-07-28T03:09:53.040Z,6.88
2022-07-28T03:12:19.524Z,5.35
2022-07-28T03:14:46.008Z,2.90
2022-07-28T03:17:12.818Z,4.20
2022-07-28T03:19:39.307Z,6.20
2022-07-28T03:22:05.841Z,5.82
2022-07-28T03:24:37.871Z,4.82
2022-07-28T03:27:13.306Z,4.00
2022-07-28T03:29:40.533Z,6.00
2022-07-28T03:32:07.529Z,6.50
2022-07-28T03:34:37.474Z,4.22
2022-07-28T03:37:06.816Z,4.40
2022-07-28T03:39:35.989Z,7.15
2022-07-28T03:42:03.524Z,8.75
2022-07-28T03:44:30.382Z,4.43
2022-07-28T03:46:56.850Z,6.25
2022-07-28T03:49:25.729Z,8.27
2022-07-28T03:51:52.095Z,10.98
2022-07-28T03:54:18.638Z,7.72
2022-07-28T03:56:45.011Z,6.03
2022-07-28T03:59:11.434Z,5.80
2022-07-28T04:01:38.430Z,5.88
2022-07-28T04:04:05.626Z,4.22
2022-07-28T04:06:32.119Z,5.47
2022-07-28T04:08:58.581Z,9.07
2022-07-28T04:11:24.990Z,5.60
2022-07-28T04:13:51.367Z,6.65
2022-07-28T04:16:17.860Z,4.13
2022-07-28T04:18:44.520Z,6.55
2022-07-28T04:21:10.878Z,5.45
2022-07-28T04:23:37.342Z,8.80
2022-07-28T04:26:03.840Z,6.35
2022-07-28T04:28:30.219Z,7.32
2022-07-28T04:30:56.745Z,3.47
2022-07-28T04:33:23.199Z,4.03
2022-07-28T04:35:52.541Z,6.95
2022-07-28T04:38:20.268Z,9.05
2022-07-28T04:40:50.055Z,4.72
2022-07-28T04:43:16.515Z,6.90
2022-07-28T04:45:53.193Z,4.75
2022-07-28T04:48:20.882Z,6.32
2022-07-28T04:50:47.359Z,9.52
2022-07-28T04:53:13.897Z,12.13
2022-07-28T04:55:42.640Z,6.50
2022-07-28T04:58:09.428Z,5.05
2022-07-28T05:00:35.940Z,15.10
2022-07-28T05:03:03.661Z,13.05
2022-07-28T05:05:30.150Z,12.75
2022-07-28T05:07:56.863Z,7.20
2022-07-28T05:10:23.313Z,10.32
2022-07-28T05:12:50.506Z,13.27
2022-07-28T05:15:17.081Z,10.95
2022-07-28T05:17:43.574Z,7.63
2022-07-28T05:20:10.286Z,8.50
2022-07-28T05:22:46.020Z,8.25
2022-07-28T05:27:38.793Z,7.47
2022-07-28T05:30:05.632Z,5.68
2022-07-28T05:32:32.030Z,10.48
2022-07-28T05:34:59.467Z,5.28
2022-07-28T05:37:25.842Z,7.95
2022-07-28T05:39:52.207Z,8.55
2022-07-28T05:42:18.646Z,10.27
2022-07-28T05:44:45.003Z,7.10
2022-07-28T05:47:11.399Z,9.05
2022-07-28T05:49:38.924Z,9.25
2022-07-28T05:52:05.420Z,7.07
2022-07-28T05:54:31.836Z,6.65
2022-07-28T05:56:58.196Z,7.07
2022-07-28T05:59:24.622Z,7.80
2022-07-28T06:01:51.056Z,5.63
2022-07-28T06:04:26.556Z,9.00
2022-07-28T06:06:54.760Z,5.72
2022-07-28T06:09:21.172Z,8.27
2022-07-28T06:11:47.709Z,7.20
2022-07-28T06:14:14.372Z,5.50
2022-07-28T06:16:41.198Z,7.75
2022-07-28T06:19:07.915Z,5.50
2022-07-28T06:21:34.344Z,5.70
2022-07-28T06:24:00.805Z,8.45
2022-07-28T06:26:27.267Z,3.97
2022-07-28T06:28:53.685Z,9.57
2022-07-28T06:31:20.090Z,9.38
2022-07-28T06:33:46.542Z,6.00
2022-07-28T06:36:12.908Z,6.85
2022-07-28T06:38:39.306Z,8.65
2022-07-28T06:41:05.740Z,11.70
2022-07-28T06:43:36.825Z,9.15
2022-07-28T06:46:05.398Z,11.50
2022-07-28T06:48:31.880Z,7.70
2022-07-28T06:50:59.786Z,10.70
2022-07-28T06:53:26.814Z,8.32
2022-07-28T06:55:58.833Z,10.48
2022-07-28T06:58:25.451Z,6.43
2022-07-28T07:00:51.942Z,7.13
2022-07-28T07:03:18.416Z,5.45
2022-07-28T07:05:44.843Z,6.47
2022-07-28T07:08:15.405Z,8.73
2022-07-28T07:10:41.791Z,6.97
2022-07-28T07:13:08.302Z,11.00
2022-07-28T07:15:35.175Z,8.23
2022-07-28T07:18:01.704Z,6.25
2022-07-28T07:20:28.288Z,9.57
2022-07-28T07:22:55.555Z,12.93
2022-07-28T07:25:22.041Z,7.13
2022-07-28T07:27:48.752Z,5.53
2022-07-28T07:30:16.102Z,6.78
2022-07-28T07:32:42.824Z,6.55
2022-07-28T07:35:09.551Z,9.52
2022-07-28T07:37:35.954Z,7.32
2022-07-28T07:40:03.779Z,6.18
2022-07-28T07:42:30.251Z,9.25
2022-07-28T07:44:56.646Z,11.85
2022-07-28T07:47:23.156Z,5.57
2022-07-28T07:49:49.550Z,10.80
2022-07-28T07:52:15.984Z,5.72
2022-07-28T07:54:42.385Z,7.57
2022-07-28T07:57:09.357Z,6.13
2022-07-28T07:59:35.818Z,8.40
2022-07-28T08:02:02.379Z,6.20
2022-07-28T08:04:31.748Z,6.82
2022-07-28T08:07:04.562Z,9.40
2022-07-28T08:09:32.183Z,8.55
2022-07-28T08:11:58.548Z,6.07
2022-07-28T08:14:25.286Z,6.75
2022-07-28T08:16:52.333Z,5.10
2022-07-28T08:19:21.449Z,8.00
2022-07-28T08:21:50.645Z,5.20
2022-07-28T08:24:32.483Z,10.20
2022-07-28T08:26:59.585Z,4.07
2022-07-28T08:29:26.256Z,7.05
2022-07-28T08:31:52.794Z,5.50
2022-07-28T08:34:31.309Z,4.00
2022-07-28T08:37:01.512Z,5.47
2022-07-28T08:39:27.919Z,7.57
2022-07-28T08:41:58.917Z,5.20
2022-07-28T08:44:28.045Z,6.90
2022-07-28T08:46:54.688Z,7.10
2022-07-28T08:49:21.257Z,6.60
2022-07-28T08:51:48.599Z,4.32
2022-07-28T08:54:17.121Z,4.57
2022-07-28T08:56:48.051Z,5.05
2022-07-28T08:59:14.770Z,6.10
2022-07-28T09:01:41.383Z,5.05
2022-07-28T09:04:08.696Z,8.73
2022-07-28T09:06:36.613Z,3.58
2022-07-28T09:09:03.367Z,4.57
2022-07-28T09:11:29.799Z,6.95
2022-07-28T09:13:56.232Z,7.38
2022-07-28T09:16:22.797Z,4.55
2022-07-28T09:18:49.271Z,3.58
2022-07-28T09:21:15.786Z,7.95
2022-07-28T09:23:44.527Z,8.02
2022-07-28T09:26:12.583Z,6.70
2022-07-28T09:28:55.937Z,5.07
2022-07-28T09:31:23.454Z,6.05
2022-07-28T09:34:03.691Z,5.15
2022-07-28T09:36:30.895Z,6.95
2022-07-28T09:38:57.385Z,3.63
2022-07-28T09:41:24.015Z,7.68
2022-07-28T09:43:54.886Z,5.65
2022-07-28T09:46:24.376Z,5.32
2022-07-28T09:48:51.345Z,6.30
2022-07-28T09:51:21.915Z,4.65
2022-07-28T09:53:48.405Z,4.40
2022-07-28T09:56:14.993Z,7.13
2022-07-28T09:58:41.844Z,5.55
2022-07-28T10:01:12.379Z,3.75
2022-07-28T10:03:40.752Z,4.28
2022-07-28T10:06:11.639Z,5.38
2022-07-28T10:08:48.675Z,4.95
2022-07-28T10:11:16.494Z,3.58
2022-07-28T10:13:59.835Z,2.92
2022-07-28T10:16:27.563Z,4.72
2022-07-28T10:18:54.834Z,3.33
2022-07-28T10:21:23.034Z,3.65
2022-07-28T10:23:50.928Z,2.35
2022-07-28T10:26:20.100Z,6.80
2022-07-28T10:28:50.693Z,7.70
2022-07-28T10:31:31.564Z,5.25
2022-07-28T10:33:59.370Z,8.18
2022-07-28T10:36:26.299Z,3.85
2022-07-28T10:38:57.712Z,3.38
2022-07-28T10:41:27.027Z,4.53
2022-07-28T10:43:56.528Z,7.22
2022-07-28T10:46:23.360Z,3.78
2022-07-28T10:48:50.006Z,3.88
2022-07-28T10:51:17.079Z,5.90
2022-07-28T10:53:51.333Z,3.97
2022-07-28T10:56:21.913Z,4.63
2022-07-28T10:58:48.335Z,3.47
2022-07-28T11:01:48.433Z,5.68
2022-07-28T11:04:52.478Z,5.25
2022-07-28T11:07:19.584Z,3.83
2022-07-28T11:09:49.355Z,7.30
2022-07-28T11:12:19.195Z,3.17
2022-07-28T11:14:46.470Z,6.20
2022-07-28T11:17:13.521Z,7.85
2022-07-28T11:22:34.173Z,4.20
2022-07-28T11:25:18.064Z,4.80
2022-07-28T11:30:33.621Z,6.47
2022-07-28T11:33:00.761Z,4.47
2022-07-28T11:35:31.104Z,4.05
2022-07-28T11:38:00.535Z,4.28
2022-07-28T11:40:30.648Z,6.45
2022-07-28T11:43:15.640Z,6.22
2022-07-28T11:45:54.085Z,3.83
2022-07-28T11:48:23.544Z,7.88
2022-07-28T11:51:05.255Z,7.03
2022-07-28T11:53:35.765Z,6.53
2022-07-28T11:56:06.080Z,4.10
2022-07-28T11:58:32.619Z,5.65
2022-07-28T12:01:17.757Z,8.05
2022-07-28T12:03:50.260Z,5.55
2022-07-28T12:06:28.804Z,7.15
2022-07-28T12:09:06.414Z,5.40
2022-07-28T12:11:42.434Z,4.43
2022-07-28T12:14:08.867Z,8.60
2022-07-28T12:16:36.205Z,8.90
2022-07-28T12:19:03.734Z,5.88
2022-07-28T12:21:45.722Z,8.82
2022-07-28T12:24:14.080Z,5.35
2022-07-28T12:26:41.918Z,7.80
2022-07-28T12:29:12.577Z,6.72
2022-07-28T12:31:39.419Z,9.32
2022-07-28T12:34:12.341Z,9.13
2022-07-28T12:36:39.150Z,11.15
2022-07-28T12:39:10.908Z,13.02
2022-07-28T12:41:39.587Z,7.18
2022-07-28T12:44:06.178Z,10.40
2022-07-28T12:46:33.069Z,11.35
2022-07-28T12:49:00.191Z,7.25
2022-07-28T12:51:30.727Z,7.38
2022-07-28T12:53:57.192Z,6.38
2022-07-28T12:56:23.615Z,5.72
2022-07-28T12:58:56.480Z,8.50
2022-07-28T13:01:23.003Z,7.85
2022-07-28T13:03:53.814Z,12.30
2022-07-28T13:06:20.493Z,9.80
2022-07-28T13:08:47.611Z,10.38
2022-07-28T13:11:43.204Z,7.78
2022-07-28T13:14:02.495Z,8.55
2022-07-28T13:16:30.115Z,7.60
2022-07-28T13:18:58.464Z,9.38
2022-07-28T13:21:37.654Z,15.40
2022-07-28T13:24:04.485Z,10.45
2022-07-28T13:26:34.110Z,10.68
2022-07-28T13:29:04.404Z,14.00
2022-07-28T13:31:41.712Z,9.55
2022-07-28T13:34:09.499Z,11.07
2022-07-28T13:36:36.600Z,13.52
2022-07-28T13:39:03.976Z,10.27
2022-07-28T13:41:57.114Z,14.68
2022-07-28T13:44:17.401Z,13.75
2022-07-28T13:46:45.462Z,13.57
2022-07-28T13:49:13.732Z,13.65
2022-07-28T13:51:40.286Z,12.48
2022-07-28T13:54:08.281Z,11.38
2022-07-28T13:56:39.730Z,16.08
2022-07-28T13:59:07.356Z,14.13
2022-07-28T14:01:35.957Z,15.60
2022-07-28T14:04:03.398Z,12.98
2022-07-28T14:06:29.867Z,15.07
2022-07-28T14:08:56.524Z,13.82
2022-07-28T14:11:23.094Z,14.75
2022-07-28T14:13:52.162Z,14.55
2022-07-28T14:16:22.627Z,11.45
2022-07-28T14:18:49.510Z,15.60
2022-07-28T14:21:16.072Z,16.40
2022-07-28T14:23:42.650Z,13.13
2022-07-28T14:26:34.442Z,15.70
2022-07-28T14:28:55.513Z,15.80
2022-07-28T14:31:22.430Z,17.77
2022-07-28T14:33:54.322Z,14.93
2022-07-28T14:36:21.913Z,20.38
2022-07-28T14:38:55.482Z,21.48
2022-07-28T14:41:21.987Z,19.15
2022-07-28T14:43:48.651Z,14.55
2022-07-28T14:46:21.062Z,18.63
2022-07-28T14:48:48.026Z,26.58
2022-07-28T14:51:14.792Z,20.50
2022-07-28T14:53:49.947Z,18.08
2022-07-28T14:56:18.134Z,20.23
2022-07-28T14:58:44.609Z,16.60
2022-07-28T15:01:11.105Z,14.57
2022-07-28T15:03:37.611Z,17.40
2022-07-28T15:06:09.933Z,19.50
2022-07-28T15:08:36.441Z,19.58
2022-07-28T15:11:03.242Z,20.42
2022-07-28T15:13:29.692Z,23.85
2022-07-28T15:15:56.378Z,24.85
2022-07-28T15:18:22.800Z,22.25
2022-07-28T15:20:51.046Z,21.10
2022-07-28T15:23:17.561Z,26.48
2022-07-28T15:25:46.359Z,25.38
2022-07-28T15:28:17.575Z,19.63
2022-07-28T15:30:51.366Z,15.10
2022-07-28T15:33:19.715Z,17.13
2022-07-28T15:35:57.748Z,17.48
2022-07-28T15:38:25.950Z,21.25
2022-07-28T15:40:52.902Z,22.65
2022-07-28T15:43:19.576Z,27.13
2022-07-28T15:45:50.411Z,26.42
2022-07-28T15:48:17.133Z,25.02
2022-07-28T15:50:48.856Z,27.95
2022-07-28T15:53:18.500Z,22.38
2022-07-28T15:55:50.566Z,30.88
2022-07-28T15:58:17.847Z,17.25
2022-07-28T16:00:44.456Z,22.48
2022-07-28T16:03:11.585Z,18.33
2022-07-28T16:05:38.156Z,22.67
2022-07-28T16:08:04.771Z,21.67
2022-07-28T16:10:33.908Z,14.35
2022-07-28T16:13:01.623Z,16.98
2022-07-28T16:15:28.152Z,16.50
2022-07-28T16:17:54.530Z,15.30
2022-07-28T16:20:21.164Z,16.60
2022-07-28T16:22:47.659Z,15.20
2022-07-28T16:25:17.691Z,15.23
2022-07-28T16:27:44.498Z,18.08
2022-07-28T16:30:11.704Z,23.55
2022-07-28T16:32:38.985Z,13.70
2022-07-28T16:35:06.772Z,17.73
2022-07-28T16:37:33.991Z,19.83
2022-07-28T16:40:00.451Z,17.40
2022-07-28T16:42:26.916Z,13.45
2022-07-28T16:44:53.353Z,16.60
2022-07-28T16:47:19.815Z,15.63
2022-07-28T16:49:46.527Z,16.02
2022-07-28T16:52:13.700Z,10.68
2022-07-28T16:54:40.106Z,10.55
2022-07-28T16:57:07.358Z,11.50
2022-07-28T16:59:37.566Z,10.63
2022-07-28T17:02:14.539Z,7.07
2022-07-28T17:04:40.991Z,8.40
2022-07-28T17:07:08.270Z,12.98
2022-07-28T17:09:34.716Z,10.43
2022-07-28T17:12:01.325Z,8.40
2022-07-28T17:14:27.702Z,11.27
2022-07-28T17:16:54.136Z,8.25
2022-07-28T17:19:22.166Z,12.85
2022-07-28T17:21:48.811Z,10.93
2022-07-28T17:24:15.979Z,10.95
2022-07-28T17:29:29.032Z,9.15
2022-07-28T17:31:55.437Z,7.22
2022-07-28T17:34:21.881Z,9.23
2022-07-28T17:36:48.450Z,7.30
2022-07-28T17:39:14.940Z,6.32
2022-07-28T17:41:41.700Z,10.18
2022-07-28T17:44:08.210Z,8.23
2022-07-28T17:46:35.099Z,5.20
2022-07-28T17:49:02.344Z,11.23
2022-07-28T17:51:28.980Z,8.05
2022-07-28T17:53:55.651Z,10.23
2022-07-28T17:56:22.308Z,8.57
2022-07-28T17:58:48.808Z,8.43
2022-07-28T18:01:15.481Z,7.07
2022-07-28T18:03:58.443Z,7.78
2022-07-28T18:06:27.376Z,10.73
2022-07-28T18:08:53.808Z,11.18
2022-07-28T18:11:20.238Z,6.13
2022-07-28T18:14:04.028Z,5.68
2022-07-28T18:16:31.351Z,4.53
2022-07-28T18:18:57.831Z,3.22
2022-07-28T18:21:26.401Z,6.55
2022-07-28T18:23:52.809Z,12.55
2022-07-28T18:26:21.981Z,9.43
2022-07-28T18:28:48.674Z,10.63
2022-07-28T18:31:15.198Z,11.02
2022-07-28T18:33:41.643Z,3.80
2022-07-28T18:36:08.128Z,8.85
2022-07-28T18:38:34.554Z,13.25
2022-07-28T18:41:01.122Z,9.30
2022-07-28T18:43:27.790Z,6.03
2022-07-28T18:45:54.410Z,11.57
2022-07-28T18:48:21.061Z,5.93
2022-07-28T18:50:47.756Z,6.32
2022-07-28T18:53:14.139Z,7.57
2022-07-28T18:55:40.537Z,11.10
2022-07-28T18:58:06.988Z,16.58
2022-07-28T19:00:33.846Z,10.52
2022-07-28T19:03:01.517Z,8.93
2022-07-28T19:05:37.008Z,11.93
2022-07-28T19:12:56.631Z,9.85
2022-07-28T19:15:23.248Z,15.43
2022-07-28T19:18:10.065Z,13.77
2022-07-28T19:20:36.142Z,13.93
2022-07-28T19:23:05.318Z,22.20
2022-07-28T19:25:32.242Z,15.52
2022-07-28T19:27:58.813Z,9.73
2022-07-28T19:30:25.227Z,16.55
2022-07-28T19:32:51.649Z,16.67
2022-07-28T19:35:18.140Z,13.50
2022-07-28T19:37:44.803Z,8.70
2022-07-28T19:40:11.914Z,12.30
2022-07-28T19:42:38.303Z,13.65
2022-07-28T19:45:05.324Z,10.85
2022-07-28T19:47:32.005Z,18.83
2022-07-28T19:50:04.972Z,12.10
2022-07-28T19:52:31.514Z,9.85
2022-07-28T19:54:57.887Z,8.40
2022-07-28T19:57:24.856Z,12.57
2022-07-28T19:59:51.298Z,16.73
2022-07-28T20:02:17.880Z,16.10
2022-07-28T20:04:44.409Z,12.95
2022-07-28T20:07:10.816Z,11.38
2022-07-28T20:09:37.250Z,7.28
2022-07-28T20:12:03.869Z,3.85
2022-07-28T20:14:30.371Z,14.20
2022-07-28T20:16:56.887Z,14.05
2022-07-28T20:19:23.503Z,3.47
2022-07-28T20:21:49.976Z,16.02
2022-07-28T20:24:19.378Z,9.48
2022-07-28T20:26:46.147Z,17.80
2022-07-28T20:29:12.607Z,14.98
2022-07-28T20:31:39.071Z,10.38
2022-07-28T20:34:06.924Z,8.32
2022-07-28T20:36:36.407Z,9.05
2022-07-28T20:39:15.726Z,10.32
2022-07-28T20:41:49.229Z,12.52
2022-07-28T20:44:28.739Z,14.10
2022-07-28T20:46:58.383Z,10.00
2022-07-28T20:49:24.873Z,9.02
2022-07-28T20:51:51.532Z,10.55
2022-07-28T20:54:18.840Z,10.93
2022-07-28T20:56:45.396Z,8.38
2022-07-28T20:59:11.787Z,7.50
2022-07-28T21:01:38.322Z,9.55
2022-07-28T21:04:04.909Z,9.95
2022-07-28T21:06:31.909Z,10.50
2022-07-28T21:09:00.632Z,5.32
2022-07-28T21:11:27.381Z,10.52
2022-07-28T21:13:54.012Z,16.23
2022-07-28T21:16:20.507Z,6.55
2022-07-28T21:18:46.976Z,8.15
2022-07-28T21:21:13.672Z,7.32
2022-07-28T21:23:40.286Z,16.40
2022-07-28T21:26:10.575Z,8.13
2022-07-28T21:28:55.313Z,7.60
2022-07-28T21:31:24.428Z,10.30
2022-07-28T21:33:51.129Z,7.38
2022-07-28T21:36:17.808Z,8.63
2022-07-28T21:38:50.317Z,8.98
2022-07-28T21:41:18.631Z,8.20
2022-07-28T21:43:45.129Z,19.85
2022-07-28T21:46:11.796Z,10.10
2022-07-28T21:48:38.391Z,15.30
2022-07-28T21:51:04.974Z,9.60
2022-07-28T21:53:50.530Z,6.07
2022-07-28T21:56:17.068Z,7.43
2022-07-28T21:58:44.044Z,6.80
2022-07-28T22:01:10.482Z,2.78
2022-07-28T22:03:39.904Z,8.65
2022-07-28T22:06:06.545Z,6.88
2022-07-28T22:08:33.983Z,4.85
2022-07-28T22:11:00.526Z,4.70
2022-07-28T22:13:27.104Z,8.15
2022-07-28T22:15:54.954Z,9.55
2022-07-28T22:18:21.397Z,14.52
2022-07-28T22:20:47.887Z,5.45
2022-07-28T22:23:28.799Z,12.05
2022-07-28T22:25:56.351Z,9.82
2022-07-28T22:28:29.418Z,5.60
2022-07-28T22:30:56.874Z,5.32
2022-07-28T22:33:23.249Z,7.20
2022-07-28T22:35:49.722Z,8.55
2022-07-28T22:38:16.144Z,6.13
2022-07-28T22:40:42.594Z,4.95
2022-07-28T22:43:09.027Z,4.30
2022-07-28T22:45:49.799Z,6.72
2022-07-28T22:48:17.861Z,10.07
2022-07-28T22:50:44.570Z,7.07
2022-07-28T22:53:13.226Z,5.45
2022-07-28T22:55:39.972Z,7.15
2022-07-28T22:58:06.629Z,7.95
2022-07-28T23:00:36.183Z,7.43
2022-07-28T23:03:03.187Z,3.17
2022-07-28T23:05:30.374Z,3.72
2022-07-28T23:07:57.559Z,5.10
2022-07-28T23:10:25.198Z,9.35
2022-07-28T23:12:51.628Z,11.95
2022-07-28T23:15:18.180Z,4.60
2022-07-28T23:17:44.678Z,7.05
2022-07-28T23:20:11.275Z,8.18
2022-07-28T23:22:38.061Z,5.88
2022-07-28T23:25:04.764Z,6.40
2022-07-28T23:27:31.175Z,6.15
2022-07-28T23:29:57.553Z,4.60
2022-07-28T23:32:23.907Z,7.63
2022-07-28T23:34:50.309Z,6.95
2022-07-28T23:37:16.942Z,8.25
2022-07-28T23:39:43.356Z,6.20
2022-07-28T23:42:09.766Z,7.07
2022-07-28T23:44:37.788Z,2.92
2022-07-28T23:47:04.272Z,7.03
2022-07-28T23:49:30.807Z,3.53
2022-07-28T23:51:57.223Z,6.15
2022-07-28T23:54:23.619Z,7.38
2022-07-28T23:56:55.733Z,5.85
2022-07-28T23:59:22.697Z,5.28
